createdAt,value
2023-05-05T00:00:31.418Z,1.6
2023-05-05T00:01:34.765Z,1.8
2023-05-05T00:02:37.998Z,1.5
2023-05-05T00:03:41.275Z,1.4
2023-05-05T00:04:44.581Z,1.5
2023-05-05T00:05:46.882Z,1.5
2023-05-05T00:06:50.153Z,1.6
2023-05-05T00:07:53.487Z,1.4
2023-05-05T00:08:56.787Z,1.3
2023-05-05T00:10:00.034Z,1.4
2023-05-05T00:11:03.334Z,1.8
2023-05-05T00:12:06.690Z,1.8
2023-05-05T00:13:09.923Z,1.9
2023-05-05T00:14:12.245Z,1.7
2023-05-05T00:15:14.529Z,1.8
2023-05-05T00:16:16.928Z,1.6
2023-05-05T00:17:19.146Z,1.7
2023-05-05T00:18:22.462Z,1.5
2023-05-05T00:19:25.766Z,1.4
2023-05-05T00:20:29.050Z,1.5
2023-05-05T00:21:32.321Z,1.7
2023-05-05T00:22:35.685Z,1.5
2023-05-05T00:23:38.904Z,1.6
2023-05-05T00:24:42.292Z,1.2
2023-05-05T00:25:45.501Z,1.6
2023-05-05T00:26:48.771Z,1.4
2023-05-05T00:27:52.094Z,1.4
2023-05-05T00:28:55.375Z,1.6
2023-05-05T00:29:58.679Z,1.3
2023-05-05T00:31:00.975Z,1.4
2023-05-05T00:32:04.261Z,1.7
2023-05-05T00:33:07.564Z,1.4
2023-05-05T00:34:10.847Z,1.6
2023-05-05T00:35:14.149Z,1.4
2023-05-05T00:36:17.425Z,1.3
2023-05-05T00:37:20.747Z,1.4
2023-05-05T00:38:23.066Z,1.3
2023-05-05T00:39:25.355Z,1.3
2023-05-05T00:40:27.648Z,1.4
2023-05-05T00:41:29.988Z,1.2
2023-05-05T00:42:33.633Z,1.3
2023-05-05T00:43:36.890Z,1.3
2023-05-05T00:44:40.224Z,1.5
2023-05-05T00:45:43.489Z,1.3
2023-05-05T00:46:46.785Z,1.7
2023-05-05T00:47:50.077Z,1.5
2023-05-05T00:48:53.366Z,1.3
2023-05-05T00:49:56.663Z,1.5
2023-05-05T00:50:59.952Z,1.2
2023-05-05T00:52:03.248Z,1.8
2023-05-05T00:53:06.567Z,1.7
2023-05-05T00:54:09.820Z,1.9
2023-05-05T00:55:12.130Z,1.3
2023-05-05T00:56:15.421Z,1.8
2023-05-05T00:57:18.713Z,1.4
2023-05-05T00:58:21.999Z,1.4
2023-05-05T00:59:25.290Z,1.6
2023-05-05T01:00:28.594Z,1.6
2023-05-05T01:01:31.893Z,1.6
2023-05-05T01:02:34.189Z,1.5
2023-05-05T01:03:36.510Z,1.4
2023-05-05T01:04:38.834Z,1.5
2023-05-05T01:05:41.131Z,1.4
2023-05-05T01:06:44.422Z,1.5
2023-05-05T01:07:47.721Z,1.5
2023-05-05T01:08:50.994Z,2
2023-05-05T01:09:54.292Z,1.6
2023-05-05T01:10:57.575Z,1.1
2023-05-05T01:12:00.870Z,1.3
2023-05-05T01:13:04.173Z,1.1
2023-05-05T01:14:07.513Z,1.6
2023-05-05T01:15:10.739Z,1.6
2023-05-05T01:16:14.033Z,1.5
2023-05-05T01:17:16.406Z,1.4
2023-05-05T01:18:19.639Z,1.5
2023-05-05T01:19:22.935Z,1.6
2023-05-05T01:20:26.223Z,1.8
2023-05-05T01:21:29.522Z,1.2
2023-05-05T01:22:32.817Z,1.5
2023-05-05T01:23:36.121Z,1.1
2023-05-05T01:24:39.403Z,1.4
2023-05-05T01:25:42.689Z,1.3
2023-05-05T01:26:45.015Z,1.7
2023-05-05T01:27:47.301Z,1.6
2023-05-05T01:28:49.631Z,1.6
2023-05-05T01:29:51.928Z,1.7
2023-05-05T01:30:55.225Z,1.5
2023-05-05T01:31:58.510Z,1.3
2023-05-05T01:33:01.838Z,1.4
2023-05-05T01:34:05.096Z,1.6
2023-05-05T01:35:08.388Z,2
2023-05-05T01:36:11.688Z,1.4
2023-05-05T01:37:14.968Z,1.6
2023-05-05T01:38:18.270Z,1.3
2023-05-05T01:39:21.548Z,1.5
2023-05-05T01:40:24.855Z,1.6
2023-05-05T01:41:28.137Z,1.4
2023-05-05T01:42:31.427Z,1.8
2023-05-05T01:43:33.739Z,1.6
2023-05-05T01:44:37.089Z,1.4
2023-05-05T01:45:40.332Z,1.3
2023-05-05T01:46:43.626Z,1.3
2023-05-05T01:47:46.904Z,1.5
2023-05-05T01:48:50.204Z,1.4
2023-05-05T01:49:53.470Z,1.5
2023-05-05T01:50:55.806Z,1.1
2023-05-05T01:51:58.112Z,1.1
2023-05-05T01:53:00.428Z,1.4
2023-05-05T01:54:02.746Z,1.6
2023-05-05T01:55:06.011Z,1.4
2023-05-05T01:56:09.312Z,1.4
2023-05-05T01:57:12.597Z,1.4
2023-05-05T01:58:15.886Z,1.5
2023-05-05T01:59:19.194Z,1.4
2023-05-05T02:00:22.484Z,1.4
2023-05-05T02:01:25.772Z,1.6
2023-05-05T02:02:29.057Z,1.4
2023-05-05T02:03:32.351Z,1.7
2023-05-05T02:04:35.662Z,1.8
2023-05-05T02:05:38.937Z,1.3
2023-05-05T02:06:42.223Z,1.2
2023-05-05T02:07:44.539Z,1.3
2023-05-05T02:08:47.834Z,1.4
2023-05-05T02:09:51.118Z,1.4
2023-05-05T02:10:54.420Z,1.2
2023-05-05T02:11:57.706Z,1.2
2023-05-05T02:13:01.031Z,1.3
2023-05-05T02:14:04.294Z,1.3
2023-05-05T02:15:06.630Z,1.4
2023-05-05T02:16:08.923Z,1.4
2023-05-05T02:17:12.205Z,1.5
2023-05-05T02:18:15.514Z,1.2
2023-05-05T02:19:18.792Z,1.2
2023-05-05T02:20:22.084Z,1.3
2023-05-05T02:21:25.383Z,1.5
2023-05-05T02:22:28.673Z,1.1
2023-05-05T02:23:31.973Z,1.1
2023-05-05T02:24:35.271Z,1.1
2023-05-05T02:25:38.547Z,1.4
2023-05-05T02:26:41.837Z,1.1
2023-05-05T02:27:45.123Z,1.4
2023-05-05T02:28:48.427Z,1.3
2023-05-05T02:29:50.748Z,1.3
2023-05-05T02:31:57.312Z,1.2
2023-05-05T02:33:00.594Z,1.2
2023-05-05T02:34:03.896Z,1.1
2023-05-05T02:35:07.181Z,1.4
2023-05-05T02:36:10.474Z,1.4
2023-05-05T02:37:13.758Z,1.3
2023-05-05T02:38:16.086Z,1.4
2023-05-05T02:39:18.396Z,1.3
2023-05-05T02:40:20.720Z,1.4
2023-05-05T02:41:23.014Z,1.3
2023-05-05T02:42:26.336Z,1.4
2023-05-05T02:43:28.665Z,1.4
2023-05-05T02:44:31.284Z,1.6
2023-05-05T02:45:34.616Z,1.8
2023-05-05T02:46:37.805Z,1.1
2023-05-05T02:47:41.117Z,1.2
2023-05-05T02:49:47.716Z,1.3
2023-05-05T02:50:50.995Z,1.4
2023-05-05T02:51:54.283Z,1.4
2023-05-05T02:52:57.568Z,1.7
2023-05-05T02:54:00.856Z,1.4
2023-05-05T02:55:04.207Z,1.4
2023-05-05T02:56:07.437Z,1.5
2023-05-05T02:57:10.742Z,1.8
2023-05-05T02:58:13.046Z,1.4
2023-05-05T02:59:16.357Z,1.3
2023-05-05T03:00:19.630Z,1.6
2023-05-05T03:01:22.914Z,1.6
2023-05-05T03:02:26.214Z,1.7
2023-05-05T03:03:29.498Z,1.4
2023-05-05T03:04:32.781Z,1.3
2023-05-05T03:05:36.076Z,1.8
2023-05-05T03:06:38.397Z,1.5
2023-05-05T03:07:40.702Z,1.5
2023-05-05T03:08:43.015Z,1.5
2023-05-05T03:09:45.322Z,1.4
2023-05-05T03:10:48.625Z,1.4
2023-05-05T03:11:51.913Z,1.5
2023-05-05T03:12:55.197Z,1.5
2023-05-05T03:13:58.496Z,1.6
2023-05-05T03:15:01.778Z,1.9
2023-05-05T03:16:05.089Z,1.5
2023-05-05T03:17:08.387Z,1.4
2023-05-05T03:18:11.666Z,1.3
2023-05-05T03:19:14.956Z,1.6
2023-05-05T03:20:18.241Z,1.5
2023-05-05T03:21:21.538Z,1.5
2023-05-05T03:22:24.837Z,1.7
2023-05-05T03:23:27.147Z,1.5
2023-05-05T03:24:30.408Z,1.5
2023-05-05T03:25:33.707Z,1.6
2023-05-05T03:26:37.003Z,1.6
2023-05-05T03:27:40.360Z,1.6
2023-05-05T03:28:43.579Z,1.5
2023-05-05T03:29:46.897Z,1.5
2023-05-05T03:30:49.191Z,1.5
2023-05-05T03:31:51.496Z,1.7
2023-05-05T03:32:53.820Z,1.6
2023-05-05T03:33:56.127Z,1.6
2023-05-05T03:34:59.428Z,1.3
2023-05-05T03:36:02.720Z,1.5
2023-05-05T03:37:05.987Z,1.7
2023-05-05T03:38:09.289Z,1.6
2023-05-05T03:39:12.580Z,1.6
2023-05-05T03:40:15.915Z,1.6
2023-05-05T03:41:19.160Z,1.4
2023-05-05T03:42:22.518Z,1.6
2023-05-05T03:43:25.745Z,1.5
2023-05-05T03:44:29.052Z,1.6
2023-05-05T03:45:32.337Z,1.5
2023-05-05T03:46:35.638Z,1.5
2023-05-05T03:47:37.936Z,1.4
2023-05-05T03:48:41.216Z,1.3
2023-05-05T03:49:44.525Z,1.5
2023-05-05T03:50:47.817Z,1.3
2023-05-05T03:51:51.094Z,1.6
2023-05-05T03:52:54.410Z,1.4
2023-05-05T03:53:57.687Z,1.5
2023-05-05T03:54:59.999Z,1.4
2023-05-05T03:56:02.310Z,1.4
2023-05-05T03:57:04.641Z,1.5
2023-05-05T03:58:06.941Z,1.3
2023-05-05T03:59:10.240Z,1.4
2023-05-05T04:00:13.523Z,1.4
2023-05-05T04:01:16.815Z,1.5
2023-05-05T04:02:20.088Z,1.3
2023-05-05T04:03:23.402Z,1.4
2023-05-05T04:04:26.712Z,1.2
2023-05-05T04:05:29.973Z,1.1
2023-05-05T04:06:33.267Z,1.4
2023-05-05T04:07:36.548Z,1.4
2023-05-05T04:08:39.866Z,1.4
2023-05-05T04:09:43.138Z,1.5
2023-05-05T04:10:46.453Z,1.7
2023-05-05T04:11:48.732Z,1.3
2023-05-05T04:12:52.038Z,1.3
2023-05-05T04:13:55.331Z,1.4
2023-05-05T04:14:58.615Z,1.4
2023-05-05T04:16:01.920Z,1.4
2023-05-05T04:17:05.224Z,1.6
2023-05-05T04:18:08.514Z,1.1
2023-05-05T04:19:10.897Z,1.2
2023-05-05T04:20:13.222Z,1.4
2023-05-05T04:21:16.413Z,1.5
2023-05-05T04:22:18.717Z,1.5
2023-05-05T04:23:21.030Z,1.6
2023-05-05T04:24:24.321Z,1.7
2023-05-05T04:26:30.901Z,1.6
2023-05-05T04:27:34.215Z,1.4
2023-05-05T04:28:37.490Z,1.5
2023-05-05T04:29:40.783Z,1.6
2023-05-05T04:30:44.079Z,1.6
2023-05-05T04:31:47.365Z,1.5
2023-05-05T04:32:50.661Z,1.5
2023-05-05T04:33:53.944Z,1.6
2023-05-05T04:34:57.232Z,1.4
2023-05-05T04:36:00.551Z,1.4
2023-05-05T04:37:02.829Z,1.6
2023-05-05T04:38:06.159Z,1.4
2023-05-05T04:39:09.409Z,1.5
2023-05-05T04:40:12.714Z,1.4
2023-05-05T04:41:16.009Z,1.6
2023-05-05T04:42:19.362Z,1.3
2023-05-05T04:43:22.591Z,1.5
2023-05-05T04:44:25.900Z,1.5
2023-05-05T04:45:28.202Z,1.6
2023-05-05T04:46:30.487Z,1.5
2023-05-05T04:47:32.810Z,1.5
2023-05-05T04:48:35.141Z,1.5
2023-05-05T04:49:38.424Z,1.3
2023-05-05T04:50:41.706Z,1.4
2023-05-05T04:51:45.013Z,1.5
2023-05-05T04:52:48.308Z,1.7
2023-05-05T04:53:51.602Z,1.5
2023-05-05T04:54:54.877Z,1.4
2023-05-05T04:55:58.220Z,1.9
2023-05-05T04:57:01.466Z,1.5
2023-05-05T04:58:04.801Z,1.6
2023-05-05T04:59:08.065Z,1.8
2023-05-05T05:00:11.410Z,1.5
2023-05-05T05:01:14.644Z,1.7
2023-05-05T05:02:16.931Z,1.4
2023-05-05T05:03:20.227Z,1.7
2023-05-05T05:04:23.540Z,1.5
2023-05-05T05:05:26.814Z,1.6
2023-05-05T05:06:30.110Z,1.7
2023-05-05T05:07:33.399Z,1.6
2023-05-05T05:08:36.707Z,1.5
2023-05-05T05:09:39.015Z,1.6
2023-05-05T05:10:41.343Z,1.6
2023-05-05T05:11:43.637Z,1.5
2023-05-05T05:12:45.953Z,1.4
2023-05-05T05:13:49.226Z,1.4
2023-05-05T05:14:52.516Z,1.6
2023-05-05T05:15:55.803Z,1.5
2023-05-05T05:16:59.112Z,1.6
2023-05-05T05:18:02.398Z,1.6
2023-05-05T05:19:05.725Z,1.3
2023-05-05T05:20:08.974Z,1.5
2023-05-05T05:21:12.356Z,1.6
2023-05-05T05:22:15.565Z,1.6
2023-05-05T05:23:18.876Z,1.7
2023-05-05T05:24:22.144Z,1.6
2023-05-05T05:25:25.442Z,1.7
2023-05-05T05:26:27.744Z,1.7
2023-05-05T05:27:31.081Z,1.5
2023-05-05T05:28:34.318Z,1.6
2023-05-05T05:29:37.628Z,1.7
2023-05-05T05:30:40.908Z,1.5
2023-05-05T05:31:44.197Z,1.5
2023-05-05T05:32:47.490Z,1.6
2023-05-05T05:33:49.814Z,1.3
2023-05-05T05:34:52.117Z,1.7
2023-05-05T05:35:54.425Z,1.3
2023-05-05T05:36:56.763Z,1.4
2023-05-05T05:38:00.041Z,1.6
2023-05-05T05:39:03.315Z,1.5
2023-05-05T05:40:06.637Z,1.4
2023-05-05T05:41:09.905Z,1.5
2023-05-05T05:42:13.202Z,1.5
2023-05-05T05:43:16.500Z,1.4
2023-05-05T05:44:19.783Z,1.3
2023-05-05T05:45:23.055Z,1.6
2023-05-05T05:46:26.351Z,1.3
2023-05-05T05:47:29.679Z,1.4
2023-05-05T05:48:32.949Z,1.1
2023-05-05T05:49:36.255Z,1.4
2023-05-05T05:50:38.537Z,1.5
2023-05-05T05:51:41.838Z,1.4
2023-05-05T05:52:45.129Z,1.4
2023-05-05T05:53:48.418Z,1.6
2023-05-05T05:54:51.703Z,1.4
2023-05-05T05:55:55.048Z,1.3
2023-05-05T05:56:58.293Z,1.2
2023-05-05T05:58:00.619Z,1.4
2023-05-05T05:59:02.909Z,1.4
2023-05-05T06:00:06.193Z,1.4
2023-05-05T06:01:09.617Z,1.3
2023-05-05T06:02:11.859Z,1.5
2023-05-05T06:03:14.118Z,1.3
2023-05-05T06:04:17.415Z,1.5
2023-05-05T06:05:20.800Z,1.2
2023-05-05T06:06:23.984Z,1.3
2023-05-05T06:07:27.347Z,1.4
2023-05-05T06:08:30.573Z,1.5
2023-05-05T06:09:33.883Z,1.3
2023-05-05T06:10:37.168Z,1.4
2023-05-05T06:11:40.487Z,1.3
2023-05-05T06:12:43.762Z,1.3
2023-05-05T06:13:47.073Z,1.2
2023-05-05T06:14:50.402Z,1.3
2023-05-05T06:15:53.651Z,1.4
2023-05-05T06:16:55.941Z,1.3
2023-05-05T06:17:59.201Z,1.1
2023-05-05T06:19:02.513Z,1.3
2023-05-05T06:20:05.805Z,1.2
2023-05-05T06:21:09.092Z,1.3
2023-05-05T06:22:12.379Z,1.2
2023-05-05T06:23:15.673Z,1.3
2023-05-05T06:24:18.045Z,1.1
2023-05-05T06:25:20.323Z,1.2
2023-05-05T06:26:22.617Z,1.3
2023-05-05T06:27:24.919Z,1.3
2023-05-05T06:28:28.265Z,1.3
2023-05-05T06:29:31.504Z,1.2
2023-05-05T06:30:34.799Z,1.2
2023-05-05T06:31:38.079Z,1.2
2023-05-05T06:32:41.381Z,1
2023-05-05T06:33:44.667Z,1.2
2023-05-05T06:34:47.958Z,1.2
2023-05-05T06:35:51.342Z,1.3
2023-05-05T06:36:54.549Z,1.1
2023-05-05T06:37:57.832Z,1.2
2023-05-05T06:39:01.168Z,1.4
2023-05-05T06:40:04.435Z,1.5
2023-05-05T06:41:06.724Z,1.3
2023-05-05T06:42:10.074Z,1.1
2023-05-05T06:43:13.328Z,1.3
2023-05-05T06:44:16.605Z,1.3
2023-05-05T06:45:19.897Z,1.8
2023-05-05T06:46:23.201Z,1.3
2023-05-05T06:47:26.592Z,1.5
2023-05-05T06:48:28.787Z,2.09
2023-05-05T06:49:31.116Z,2.3
2023-05-05T06:50:33.409Z,2.3
2023-05-05T06:51:35.735Z,2.2
2023-05-05T06:52:39.018Z,1.5
2023-05-05T06:54:45.604Z,2.09
2023-05-05T06:55:48.892Z,1.9
2023-05-05T06:56:52.185Z,2.09
2023-05-05T06:57:55.484Z,2.3
2023-05-05T06:58:58.767Z,2.6
2023-05-05T07:01:05.358Z,2.6
2023-05-05T07:02:08.637Z,2.2
2023-05-05T07:03:11.990Z,2.5
2023-05-05T07:04:14.241Z,2.6
2023-05-05T07:05:16.606Z,2.5
2023-05-05T07:06:19.850Z,2.4
2023-05-05T07:07:23.132Z,2.2
2023-05-05T07:08:26.460Z,2.4
2023-05-05T07:09:30.067Z,2.09
2023-05-05T07:10:33.352Z,2.3
2023-05-05T07:11:36.651Z,2.2
2023-05-05T07:12:39.932Z,2.5
2023-05-05T07:13:43.239Z,2.6
2023-05-05T07:14:46.537Z,2.8
2023-05-05T07:15:48.836Z,2.09
2023-05-05T07:16:51.291Z,2.5
2023-05-05T07:17:54.586Z,2.3
2023-05-05T07:18:57.815Z,2.09
2023-05-05T07:20:01.059Z,2.2
2023-05-05T07:22:07.765Z,2
2023-05-05T07:23:11.062Z,2.09
2023-05-05T07:24:14.409Z,1.9
2023-05-05T07:25:17.622Z,2
2023-05-05T07:26:20.923Z,2
2023-05-05T07:27:24.281Z,1.9
2023-05-05T07:28:27.364Z,1.9
2023-05-05T07:29:30.734Z,1.9
2023-05-05T07:30:33.140Z,2
2023-05-05T07:31:36.334Z,1.9
2023-05-05T07:32:39.624Z,1.8
2023-05-05T07:33:42.899Z,1.9
2023-05-05T07:34:46.177Z,1.8
2023-05-05T07:35:49.557Z,1.8
2023-05-05T07:36:52.877Z,1.8
2023-05-05T07:37:56.066Z,1.9
2023-05-05T07:38:58.489Z,1.8
2023-05-05T07:40:00.730Z,1.8
2023-05-05T07:41:03.082Z,1.9
2023-05-05T07:42:05.431Z,1.7
2023-05-05T07:43:08.626Z,1.8
2023-05-05T07:44:11.852Z,1.9
2023-05-05T07:45:15.224Z,2
2023-05-05T07:46:18.423Z,1.8
2023-05-05T07:47:21.727Z,1.8
2023-05-05T07:48:25.023Z,2.09
2023-05-05T07:49:28.312Z,2
2023-05-05T07:50:31.645Z,1.9
2023-05-05T07:51:35.012Z,2
2023-05-05T07:52:38.235Z,2.09
2023-05-05T07:53:41.527Z,2
2023-05-05T07:54:44.939Z,1.9
2023-05-05T07:55:47.155Z,2
2023-05-05T07:56:50.377Z,2
2023-05-05T07:57:53.656Z,2.09
2023-05-05T07:58:56.950Z,2.09
2023-05-05T08:00:00.316Z,1.8
2023-05-05T08:01:03.535Z,2
2023-05-05T08:02:06.841Z,2
2023-05-05T08:03:09.139Z,1.9
2023-05-05T08:04:11.437Z,2.09
2023-05-05T08:05:13.745Z,2
2023-05-05T08:06:16.064Z,1.8
2023-05-05T08:07:19.339Z,1.7
2023-05-05T08:08:22.634Z,1.7
2023-05-05T08:09:25.935Z,1.9
2023-05-05T08:10:29.234Z,1.6
2023-05-05T08:11:32.516Z,1.9
2023-05-05T08:12:35.804Z,1.9
2023-05-05T08:13:39.106Z,1.9
2023-05-05T08:14:42.391Z,1.7
2023-05-05T08:15:45.732Z,1.8
2023-05-05T08:16:48.985Z,1.6
2023-05-05T08:17:52.266Z,1.6
2023-05-05T08:18:55.565Z,1.4
2023-05-05T08:19:57.872Z,1.6
2023-05-05T08:21:01.178Z,1.6
2023-05-05T08:22:04.469Z,1.2
2023-05-05T08:23:07.748Z,1.3
2023-05-05T08:24:11.041Z,1.6
2023-05-05T08:25:14.355Z,1.6
2023-05-05T08:26:17.642Z,2.2
2023-05-05T08:27:19.937Z,1.8
2023-05-05T08:28:22.243Z,1.7
2023-05-05T08:29:24.559Z,2
2023-05-05T08:30:26.871Z,1.9
2023-05-05T08:31:30.388Z,2.5
2023-05-05T08:32:33.658Z,2.2
2023-05-05T08:33:36.957Z,2.09
2023-05-05T08:34:40.233Z,2.8
2023-05-05T08:35:43.535Z,2.6
2023-05-05T08:36:46.817Z,2.3
2023-05-05T08:37:50.129Z,2.09
2023-05-05T08:38:53.424Z,2.09
2023-05-05T08:39:56.702Z,1.6
2023-05-05T08:41:00.005Z,1.5
2023-05-05T08:42:03.381Z,1.7
2023-05-05T08:43:06.596Z,1.6
2023-05-05T08:44:08.891Z,1.8
2023-05-05T08:45:12.221Z,1
2023-05-05T08:46:15.529Z,1.5
2023-05-05T08:47:18.779Z,1.2
2023-05-05T08:48:22.045Z,1
2023-05-05T08:49:25.535Z,1.1
2023-05-05T08:50:28.681Z,1
2023-05-05T08:51:30.957Z,1.2
2023-05-05T08:52:33.520Z,1.3
2023-05-05T08:53:36.761Z,1.3
2023-05-05T08:54:39.088Z,1
2023-05-05T08:56:44.675Z,1.4
2023-05-05T08:57:47.979Z,1.3
2023-05-05T08:58:51.323Z,1.5
2023-05-05T08:59:54.574Z,1.3
2023-05-05T09:00:57.857Z,0.9
2023-05-05T09:02:01.144Z,1.1
2023-05-05T09:03:04.495Z,0.8
2023-05-05T09:04:07.732Z,0.9
2023-05-05T09:05:11.015Z,1.1
2023-05-05T09:06:14.318Z,0.8
2023-05-05T09:07:17.606Z,0.8
2023-05-05T09:08:20.905Z,0.7
2023-05-05T09:09:23.261Z,0.8
2023-05-05T09:10:26.497Z,0.8
2023-05-05T09:11:29.814Z,0.7
2023-05-05T09:12:33.116Z,0.9
2023-05-05T09:13:36.674Z,0.7
2023-05-05T09:14:39.988Z,0.9
2023-05-05T09:15:43.311Z,0.5
2023-05-05T09:16:46.553Z,0.8
2023-05-05T09:17:48.862Z,0.7
2023-05-05T09:18:51.171Z,1
2023-05-05T09:19:54.455Z,0.8
2023-05-05T09:20:56.859Z,0.7
2023-05-05T09:21:59.084Z,0.8
2023-05-05T09:24:05.657Z,1.1
2023-05-05T09:25:08.957Z,0.8
2023-05-05T09:26:12.242Z,0.7
2023-05-05T09:27:15.530Z,0.6
2023-05-05T09:28:18.821Z,1
2023-05-05T09:29:22.154Z,0.9
2023-05-05T09:30:25.425Z,1
2023-05-05T09:31:28.709Z,1
2023-05-05T09:32:32.006Z,1.1
2023-05-05T09:33:35.301Z,0.9
2023-05-05T09:34:38.578Z,1.1
2023-05-05T09:35:40.900Z,1.1
2023-05-05T09:36:44.228Z,1.7
2023-05-05T09:37:47.542Z,1.1
2023-05-05T09:38:50.759Z,1.3
2023-05-05T09:39:54.071Z,1
2023-05-05T09:40:57.361Z,1.2
2023-05-05T09:42:00.713Z,0.9
2023-05-05T09:43:03.956Z,0.7
2023-05-05T09:44:06.245Z,1
2023-05-05T09:45:08.568Z,1.1
2023-05-05T09:46:10.861Z,0.9
2023-05-05T09:47:13.209Z,1.2
2023-05-05T09:48:16.557Z,1.2
2023-05-05T09:49:19.777Z,0.8
2023-05-05T09:50:23.049Z,1.2
2023-05-05T09:51:26.382Z,0.8
2023-05-05T09:52:29.697Z,1.1
2023-05-05T09:53:32.991Z,2.09
2023-05-05T09:54:36.359Z,1.2
2023-05-05T09:55:39.515Z,1.2
2023-05-05T09:56:42.813Z,1.4
2023-05-05T09:57:46.248Z,1.5
2023-05-05T09:58:49.395Z,1.2
2023-05-05T10:00:56.192Z,1.3
2023-05-05T10:01:58.365Z,1
2023-05-05T10:03:01.734Z,2
2023-05-05T10:04:05.035Z,2.09
2023-05-05T10:05:08.317Z,1.8
2023-05-05T10:06:11.542Z,1.3
2023-05-05T10:07:14.736Z,1.5
2023-05-05T10:08:18.144Z,2.3
2023-05-05T10:09:20.446Z,1.9
2023-05-05T10:10:22.795Z,1.5
2023-05-05T10:11:26.119Z,2.2
2023-05-05T10:12:29.379Z,2.2
2023-05-05T10:13:31.733Z,1.9
2023-05-05T10:14:34.239Z,1.4
2023-05-05T10:15:37.461Z,2.6
2023-05-05T10:16:40.802Z,2.5
2023-05-05T10:17:44.020Z,2.09
2023-05-05T10:18:47.398Z,1.8
2023-05-05T10:19:50.715Z,1.5
2023-05-05T10:20:53.846Z,1.9
2023-05-05T10:21:57.141Z,1.7
2023-05-05T10:23:00.485Z,1.6
2023-05-05T10:24:03.711Z,1.6
2023-05-05T10:25:07.078Z,1.5
2023-05-05T10:26:10.290Z,1.5
2023-05-05T10:27:13.581Z,1.5
2023-05-05T10:28:15.882Z,1.8
2023-05-05T10:29:19.244Z,1.7
2023-05-05T10:30:22.540Z,1.6
2023-05-05T10:31:25.891Z,1.5
2023-05-05T10:32:29.084Z,1.9
2023-05-05T10:33:32.336Z,2.3
2023-05-05T10:34:35.638Z,1.6
2023-05-05T10:35:37.960Z,1.3
2023-05-05T10:36:40.349Z,1.8
2023-05-05T10:37:42.632Z,1.8
2023-05-05T10:38:45.015Z,1.6
2023-05-05T10:39:48.332Z,1.8
2023-05-05T10:40:51.455Z,1.4
2023-05-05T10:41:54.817Z,2.4
2023-05-05T10:42:58.068Z,1.5
2023-05-05T10:44:01.413Z,1.4
2023-05-05T10:45:04.626Z,1.2
2023-05-05T10:46:07.945Z,2
2023-05-05T10:47:11.230Z,1.6
2023-05-05T10:48:14.516Z,2.3
2023-05-05T10:49:17.821Z,1.7
2023-05-05T10:50:21.096Z,1.6
2023-05-05T10:51:24.407Z,2.4
2023-05-05T10:52:26.732Z,2.5
2023-05-05T10:53:30.024Z,2.2
2023-05-05T10:54:33.296Z,2
2023-05-05T10:55:36.561Z,2
2023-05-05T10:56:39.906Z,1.8
2023-05-05T10:57:43.193Z,2.09
2023-05-05T10:58:46.451Z,2
2023-05-05T10:59:48.760Z,1.8
2023-05-05T11:00:51.145Z,1.2
2023-05-05T11:01:54.362Z,1.2
2023-05-05T11:02:57.654Z,1.1
2023-05-05T11:04:00.964Z,2
2023-05-05T11:05:04.242Z,1.6
2023-05-05T11:06:07.529Z,1.6
2023-05-05T11:07:10.825Z,1.6
2023-05-05T11:08:14.121Z,1.2
2023-05-05T11:09:17.425Z,2.2
2023-05-05T11:10:20.725Z,2.09
2023-05-05T11:11:24.084Z,2.09
2023-05-05T11:12:27.453Z,2.09
2023-05-05T11:13:30.690Z,1.2
2023-05-05T11:14:32.944Z,1.3
2023-05-05T11:15:36.290Z,1.9
2023-05-05T11:16:39.476Z,1.6
2023-05-05T11:17:42.759Z,2.09
2023-05-05T11:18:46.061Z,1.4
2023-05-05T11:19:49.361Z,1.4
2023-05-05T11:20:52.653Z,2
2023-05-05T11:21:54.964Z,1.6
2023-05-05T11:22:57.274Z,1.5
2023-05-05T11:23:59.604Z,1.7
2023-05-05T11:25:02.001Z,1.9
2023-05-05T11:26:04.198Z,1.4
2023-05-05T11:27:06.493Z,1.3
2023-05-05T11:28:09.805Z,1.4
2023-05-05T11:29:13.123Z,1.5
2023-05-05T11:30:16.377Z,1.6
2023-05-05T11:31:19.687Z,1.8
2023-05-05T11:32:22.992Z,2.2
2023-05-05T11:33:26.261Z,2.2
2023-05-05T11:34:29.601Z,1.6
2023-05-05T11:35:32.843Z,2.09
2023-05-05T11:36:36.135Z,1.8
2023-05-05T11:37:39.460Z,2.2
2023-05-05T11:38:42.710Z,2.09
2023-05-05T11:39:46.005Z,1.5
2023-05-05T11:40:48.325Z,1.5
2023-05-05T11:41:51.612Z,1.2
2023-05-05T11:42:54.891Z,1.3
2023-05-05T11:43:58.186Z,1.6
2023-05-05T11:45:01.468Z,1.6
2023-05-05T11:46:04.766Z,1.4
2023-05-05T11:47:08.064Z,2.4
2023-05-05T11:48:10.368Z,1.7
2023-05-05T11:49:12.709Z,1.7
2023-05-05T11:50:14.993Z,1.7
2023-05-05T11:51:17.297Z,2
2023-05-05T11:52:20.587Z,1.5
2023-05-05T11:53:23.905Z,1.9
2023-05-05T11:54:27.180Z,1.1
2023-05-05T11:55:30.482Z,1.9
2023-05-05T11:56:33.768Z,1.8
2023-05-05T11:57:37.067Z,1.3
2023-05-05T11:58:40.354Z,1.5
2023-05-05T11:59:43.679Z,1.6
2023-05-05T12:00:46.929Z,1.4
2023-05-05T12:01:50.232Z,1.5
2023-05-05T12:02:53.518Z,1.2
2023-05-05T12:03:56.809Z,1.8
2023-05-05T12:04:59.130Z,1.9
2023-05-05T12:06:02.430Z,2.09
2023-05-05T12:07:05.705Z,1.7
2023-05-05T12:08:08.989Z,1.8
2023-05-05T12:09:12.321Z,1.3
2023-05-05T12:10:15.578Z,1.5
2023-05-05T12:11:18.869Z,1.6
2023-05-05T12:12:21.353Z,1.4
2023-05-05T12:13:23.479Z,1.3
2023-05-05T12:14:26.790Z,1.5
2023-05-05T12:15:29.099Z,1.7
2023-05-05T12:16:32.382Z,1.7
2023-05-05T12:17:34.822Z,1.3
2023-05-05T12:18:38.130Z,1.6
2023-05-05T12:19:41.393Z,1.5
2023-05-05T12:20:44.704Z,1.4
2023-05-05T12:21:47.982Z,1.5
2023-05-05T12:22:51.280Z,1.4
2023-05-05T12:23:54.625Z,1.6
2023-05-05T12:24:57.867Z,1.5
2023-05-05T12:26:01.154Z,1.5
2023-05-05T12:27:04.438Z,1.3
2023-05-05T12:28:07.735Z,1.4
2023-05-05T12:29:11.059Z,1.6
2023-05-05T12:30:14.338Z,1.3
2023-05-05T12:31:16.691Z,1.6
2023-05-05T12:32:19.939Z,1.5
2023-05-05T12:33:23.207Z,1.2
2023-05-05T12:34:26.557Z,2.09
2023-05-05T12:35:29.796Z,1.7
2023-05-05T12:36:33.147Z,1.7
2023-05-05T12:37:35.418Z,1.8
2023-05-05T12:38:38.825Z,1.9
2023-05-05T12:39:41.162Z,1.7
2023-05-05T12:40:43.446Z,1.5
2023-05-05T12:41:46.734Z,1.6
2023-05-05T12:42:50.030Z,1.6
2023-05-05T12:43:53.323Z,1.7
2023-05-05T12:44:56.599Z,1.2
2023-05-05T12:45:59.900Z,1.8
2023-05-05T12:47:03.192Z,1.7
2023-05-05T12:48:06.497Z,1.9
2023-05-05T12:49:09.914Z,1.4
2023-05-05T12:50:13.083Z,1.6
2023-05-05T12:51:16.365Z,1.4
2023-05-05T12:52:19.663Z,1.5
2023-05-05T12:53:22.955Z,1.5
2023-05-05T12:54:25.290Z,1.5
2023-05-05T12:55:28.569Z,1.5
2023-05-05T12:56:32.181Z,1.6
2023-05-05T12:57:35.477Z,1.5
2023-05-05T12:58:38.784Z,1.5
2023-05-05T12:59:42.053Z,1.6
2023-05-05T13:00:45.350Z,1.4
2023-05-05T13:01:47.672Z,1.4
2023-05-05T13:02:49.987Z,1.5
2023-05-05T13:04:55.561Z,1
2023-05-05T13:05:57.897Z,1.2
2023-05-05T13:07:00.198Z,1.2
2023-05-05T13:08:03.493Z,1.2
2023-05-05T13:09:06.807Z,1.4
2023-05-05T13:10:10.084Z,1.2
2023-05-05T13:11:13.380Z,1.3
2023-05-05T13:12:16.700Z,1.1
2023-05-05T13:13:20.001Z,1
2023-05-05T13:14:23.254Z,1.2
2023-05-05T13:15:26.589Z,1.1
2023-05-05T13:16:29.830Z,1.4
2023-05-05T13:17:33.121Z,1.1
2023-05-05T13:18:36.431Z,1.3
2023-05-05T13:19:39.707Z,1.1
2023-05-05T13:20:42.071Z,1
2023-05-05T13:21:45.330Z,1.2
2023-05-05T13:22:48.620Z,1.2
2023-05-05T13:23:51.904Z,1.2
2023-05-05T13:24:55.269Z,1
2023-05-05T13:25:58.494Z,1.2
2023-05-05T13:27:01.785Z,1.1
2023-05-05T13:28:04.096Z,1.1
2023-05-05T13:29:06.396Z,1.1
2023-05-05T13:30:09.725Z,1.1
2023-05-05T13:31:12.013Z,1
2023-05-05T13:32:14.336Z,1.1
2023-05-05T13:33:17.632Z,1
2023-05-05T13:34:20.892Z,1.1
2023-05-05T13:35:24.187Z,1.8
2023-05-05T13:36:27.475Z,1.5
2023-05-05T13:37:30.771Z,1.3
2023-05-05T13:38:34.055Z,1
2023-05-05T13:39:37.360Z,1
2023-05-05T13:40:40.671Z,1.2
2023-05-05T13:41:43.982Z,1.2
2023-05-05T13:42:47.255Z,1.1
2023-05-05T13:43:50.538Z,1
2023-05-05T13:44:53.830Z,0.8
2023-05-05T13:45:56.129Z,1
2023-05-05T13:46:59.427Z,1.1
2023-05-05T13:48:02.720Z,1
2023-05-05T13:49:06.014Z,1
2023-05-05T13:50:09.306Z,1.4
2023-05-05T13:51:12.592Z,1.1
2023-05-05T13:52:15.891Z,0.9
2023-05-05T13:53:18.205Z,1
2023-05-05T13:54:20.516Z,1
2023-05-05T13:55:22.816Z,0.9
2023-05-05T13:56:25.121Z,0.9
2023-05-05T13:57:28.442Z,1.1
2023-05-05T13:58:31.719Z,1.3
2023-05-05T13:59:35.038Z,1.3
2023-05-05T14:00:38.564Z,1.3
2023-05-05T14:01:41.863Z,1.2
2023-05-05T14:02:45.159Z,0.9
2023-05-05T14:03:48.452Z,0.9
2023-05-05T14:04:51.789Z,1.1
2023-05-05T14:05:55.029Z,1.2
2023-05-05T14:06:58.332Z,1
2023-05-05T14:08:01.614Z,1.1
2023-05-05T14:09:04.913Z,0.9
2023-05-05T14:10:07.212Z,1
2023-05-05T14:11:10.521Z,0.7
2023-05-05T14:12:13.791Z,1
2023-05-05T14:13:17.098Z,0.8
2023-05-05T14:14:20.378Z,1
2023-05-05T14:15:23.673Z,0.9
2023-05-05T14:16:26.970Z,0.9
2023-05-05T14:17:29.270Z,0.9
2023-05-05T14:18:31.594Z,0.7
2023-05-05T14:19:33.900Z,0.9
2023-05-05T14:20:36.202Z,1.1
2023-05-05T14:21:39.508Z,0.8
2023-05-05T14:22:42.797Z,1
2023-05-05T14:23:46.091Z,0.7
2023-05-05T14:24:49.413Z,0.8
2023-05-05T14:25:52.670Z,1
2023-05-05T14:26:55.959Z,0.8
2023-05-05T14:27:59.253Z,0.9
2023-05-05T14:29:02.533Z,0.9
2023-05-05T14:30:05.855Z,0.8
2023-05-05T14:31:09.123Z,1
2023-05-05T14:32:12.424Z,0.9
2023-05-05T14:33:15.721Z,1.1
2023-05-05T14:34:18.019Z,0.8
2023-05-05T14:35:21.308Z,0.8
2023-05-05T14:36:24.605Z,0.9
2023-05-05T14:37:27.909Z,1
2023-05-05T14:38:31.214Z,0.8
2023-05-05T14:39:34.490Z,0.8
2023-05-05T14:40:37.783Z,0.9
2023-05-05T14:41:40.107Z,0.9
2023-05-05T14:42:42.385Z,0.8